sensor_id;sensor_type;location;lat;lon;timestamp;P1;durP1;ratioP1;P2;durP2;ratioP2
37201;SDS011;37799;52.390;6.136;2022-12-20T00:01:58;2.75;;;0.82;;
37201;SDS011;37799;52.390;6.136;2022-12-20T00:04:23;5.47;;;0.95;;
37201;SDS011;37799;52.390;6.136;2022-12-20T00:06:49;2.97;;;0.60;;
37201;SDS011;37799;52.390;6.136;2022-12-20T00:09:14;3.40;;;0.65;;
37201;SDS011;37799;52.390;6.136;2022-12-20T00:11:40;3.45;;;0.73;;
37201;SDS011;37799;52.390;6.136;2022-12-20T00:14:06;4.55;;;1.17;;
37201;SDS011;37799;52.390;6.136;2022-12-20T00:16:33;5.53;;;1.13;;
37201;SDS011;37799;52.390;6.136;2022-12-20T00:19:00;4.40;;;0.52;;
37201;SDS011;37799;52.390;6.136;2022-12-20T00:21:28;2.90;;;0.80;;
37201;SDS011;37799;52.390;6.136;2022-12-20T00:23:55;2.80;;;0.68;;
37201;SDS011;37799;52.390;6.136;2022-12-20T00:26:22;2.22;;;0.65;;
37201;SDS011;37799;52.390;6.136;2022-12-20T00:28:49;3.00;;;0.70;;
37201;SDS011;37799;52.390;6.136;2022-12-20T00:31:16;2.53;;;0.68;;
37201;SDS011;37799;52.390;6.136;2022-12-20T00:33:44;2.88;;;0.65;;
37201;SDS011;37799;52.390;6.136;2022-12-20T00:36:11;2.90;;;0.80;;
37201;SDS011;37799;52.390;6.136;2022-12-20T00:38:37;2.42;;;0.52;;
37201;SDS011;37799;52.390;6.136;2022-12-20T00:41:04;2.47;;;0.60;;
37201;SDS011;37799;52.390;6.136;2022-12-20T00:45:59;3.38;;;0.60;;
37201;SDS011;37799;52.390;6.136;2022-12-20T00:48:25;2.55;;;0.60;;
37201;SDS011;37799;52.390;6.136;2022-12-20T00:50:52;3.78;;;0.68;;
37201;SDS011;37799;52.390;6.136;2022-12-20T00:53:30;3.42;;;0.63;;
37201;SDS011;37799;52.390;6.136;2022-12-20T00:55:56;2.17;;;0.52;;
37201;SDS011;37799;52.390;6.136;2022-12-20T00:58:22;3.45;;;0.60;;
37201;SDS011;37799;52.390;6.136;2022-12-20T01:00:48;3.40;;;0.60;;
37201;SDS011;37799;52.390;6.136;2022-12-20T01:03:14;3.53;;;0.65;;
37201;SDS011;37799;52.390;6.136;2022-12-20T01:05:39;3.63;;;0.77;;
37201;SDS011;37799;52.390;6.136;2022-12-20T01:08:05;3.05;;;0.60;;
37201;SDS011;37799;52.390;6.136;2022-12-20T01:10:31;2.63;;;0.73;;
37201;SDS011;37799;52.390;6.136;2022-12-20T01:12:56;2.63;;;0.57;;
37201;SDS011;37799;52.390;6.136;2022-12-20T01:15:21;2.47;;;0.60;;
37201;SDS011;37799;52.390;6.136;2022-12-20T01:17:47;3.42;;;0.80;;
37201;SDS011;37799;52.390;6.136;2022-12-20T01:20:12;3.33;;;0.60;;
37201;SDS011;37799;52.390;6.136;2022-12-20T01:22:38;2.20;;;0.47;;
37201;SDS011;37799;52.390;6.136;2022-12-20T01:25:03;2.30;;;0.35;;
37201;SDS011;37799;52.390;6.136;2022-12-20T01:27:30;4.88;;;0.47;;
37201;SDS011;37799;52.390;6.136;2022-12-20T01:29:55;3.30;;;0.70;;
37201;SDS011;37799;52.390;6.136;2022-12-20T01:32:20;2.65;;;0.50;;
37201;SDS011;37799;52.390;6.136;2022-12-20T01:34:45;3.28;;;0.80;;
37201;SDS011;37799;52.390;6.136;2022-12-20T01:37:11;2.40;;;0.60;;
37201;SDS011;37799;52.390;6.136;2022-12-20T01:39:36;2.42;;;0.60;;
37201;SDS011;37799;52.390;6.136;2022-12-20T01:42:02;3.17;;;0.40;;
37201;SDS011;37799;52.390;6.136;2022-12-20T01:46:54;4.07;;;0.50;;
37201;SDS011;37799;52.390;6.136;2022-12-20T01:49:30;1.63;;;0.50;;
37201;SDS011;37799;52.390;6.136;2022-12-20T01:52:03;2.13;;;0.50;;
37201;SDS011;37799;52.390;6.136;2022-12-20T01:54:42;2.78;;;0.60;;
37201;SDS011;37799;52.390;6.136;2022-12-20T01:57:13;2.22;;;0.40;;
37201;SDS011;37799;52.390;6.136;2022-12-20T01:59:49;2.60;;;0.60;;
37201;SDS011;37799;52.390;6.136;2022-12-20T02:02:16;3.00;;;0.57;;
37201;SDS011;37799;52.390;6.136;2022-12-20T02:04:42;2.85;;;0.40;;
37201;SDS011;37799;52.390;6.136;2022-12-20T02:07:07;2.90;;;0.50;;
37201;SDS011;37799;52.390;6.136;2022-12-20T02:09:41;4.60;;;0.60;;
37201;SDS011;37799;52.390;6.136;2022-12-20T02:31:48;2.20;;;0.50;;
37201;SDS011;37799;52.390;6.136;2022-12-20T02:34:36;2.92;;;0.63;;
37201;SDS011;37799;52.390;6.136;2022-12-20T02:37:03;3.03;;;0.75;;
37201;SDS011;37799;52.390;6.136;2022-12-20T02:39:30;1.60;;;0.50;;
37201;SDS011;37799;52.390;6.136;2022-12-20T02:42:17;3.28;;;0.60;;
37201;SDS011;37799;52.390;6.136;2022-12-20T02:44:47;3.25;;;0.52;;
37201;SDS011;37799;52.390;6.136;2022-12-20T02:50:26;3.60;;;0.50;;
37201;SDS011;37799;52.390;6.136;2022-12-20T02:52:55;2.83;;;0.50;;
37201;SDS011;37799;52.390;6.136;2022-12-20T02:55:23;2.67;;;0.47;;
37201;SDS011;37799;52.390;6.136;2022-12-20T02:58:00;3.10;;;0.52;;
37201;SDS011;37799;52.390;6.136;2022-12-20T03:00:31;2.20;;;0.47;;
37201;SDS011;37799;52.390;6.136;2022-12-20T03:03:01;2.60;;;0.50;;
37201;SDS011;37799;52.390;6.136;2022-12-20T03:05:47;2.95;;;0.70;;
37201;SDS011;37799;52.390;6.136;2022-12-20T03:08:14;2.15;;;0.55;;
37201;SDS011;37799;52.390;6.136;2022-12-20T03:10:40;3.60;;;0.52;;
37201;SDS011;37799;52.390;6.136;2022-12-20T03:13:05;3.13;;;0.75;;
37201;SDS011;37799;52.390;6.136;2022-12-20T03:15:31;2.60;;;0.50;;
37201;SDS011;37799;52.390;6.136;2022-12-20T03:17:56;2.80;;;0.90;;
37201;SDS011;37799;52.390;6.136;2022-12-20T03:20:22;3.10;;;0.70;;
37201;SDS011;37799;52.390;6.136;2022-12-20T03:22:47;4.72;;;1.20;;
37201;SDS011;37799;52.390;6.136;2022-12-20T03:25:12;4.28;;;0.82;;
37201;SDS011;37799;52.390;6.136;2022-12-20T03:27:38;4.75;;;0.93;;
37201;SDS011;37799;52.390;6.136;2022-12-20T03:30:03;2.90;;;0.80;;
37201;SDS011;37799;52.390;6.136;2022-12-20T03:32:29;3.92;;;1.05;;
37201;SDS011;37799;52.390;6.136;2022-12-20T03:34:55;2.60;;;0.70;;
37201;SDS011;37799;52.390;6.136;2022-12-20T03:37:20;3.63;;;0.80;;
37201;SDS011;37799;52.390;6.136;2022-12-20T03:39:45;3.67;;;0.70;;
37201;SDS011;37799;52.390;6.136;2022-12-20T03:42:11;4.35;;;0.82;;
37201;SDS011;37799;52.390;6.136;2022-12-20T03:44:36;3.08;;;0.50;;
37201;SDS011;37799;52.390;6.136;2022-12-20T03:47:02;3.83;;;0.75;;
37201;SDS011;37799;52.390;6.136;2022-12-20T03:49:27;3.17;;;0.70;;
37201;SDS011;37799;52.390;6.136;2022-12-20T03:51:52;1.83;;;0.57;;
37201;SDS011;37799;52.390;6.136;2022-12-20T03:54:18;4.10;;;0.93;;
37201;SDS011;37799;52.390;6.136;2022-12-20T03:56:43;3.65;;;0.77;;
37201;SDS011;37799;52.390;6.136;2022-12-20T03:59:09;1.63;;;0.45;;
37201;SDS011;37799;52.390;6.136;2022-12-20T04:01:35;3.75;;;0.80;;
37201;SDS011;37799;52.390;6.136;2022-12-20T04:04:03;5.95;;;0.88;;
37201;SDS011;37799;52.390;6.136;2022-12-20T04:06:29;4.75;;;0.80;;
37201;SDS011;37799;52.390;6.136;2022-12-20T04:08:54;4.78;;;1.13;;
37201;SDS011;37799;52.390;6.136;2022-12-20T04:11:20;2.85;;;0.65;;
37201;SDS011;37799;52.390;6.136;2022-12-20T04:13:46;2.92;;;0.70;;
37201;SDS011;37799;52.390;6.136;2022-12-20T04:16:15;3.15;;;0.80;;
37201;SDS011;37799;52.390;6.136;2022-12-20T04:18:44;6.90;;;0.80;;
37201;SDS011;37799;52.390;6.136;2022-12-20T04:21:10;2.70;;;0.93;;
37201;SDS011;37799;52.390;6.136;2022-12-20T04:23:36;3.17;;;0.75;;
37201;SDS011;37799;52.390;6.136;2022-12-20T04:26:04;3.67;;;0.95;;
37201;SDS011;37799;52.390;6.136;2022-12-20T04:28:31;2.20;;;0.63;;
37201;SDS011;37799;52.390;6.136;2022-12-20T04:30:57;4.30;;;0.63;;
37201;SDS011;37799;52.390;6.136;2022-12-20T04:33:22;5.57;;;0.80;;
37201;SDS011;37799;52.390;6.136;2022-12-20T04:35:48;3.65;;;0.45;;
37201;SDS011;37799;52.390;6.136;2022-12-20T04:38:14;2.78;;;0.85;;
37201;SDS011;37799;52.390;6.136;2022-12-20T04:40:40;4.30;;;0.80;;
37201;SDS011;37799;52.390;6.136;2022-12-20T04:43:05;3.65;;;0.80;;
37201;SDS011;37799;52.390;6.136;2022-12-20T04:45:31;3.75;;;0.80;;
37201;SDS011;37799;52.390;6.136;2022-12-20T04:47:56;3.78;;;0.60;;
37201;SDS011;37799;52.390;6.136;2022-12-20T04:50:21;5.53;;;1.23;;
37201;SDS011;37799;52.390;6.136;2022-12-20T04:52:46;3.78;;;0.80;;
37201;SDS011;37799;52.390;6.136;2022-12-20T04:55:30;2.92;;;0.45;;
37201;SDS011;37799;52.390;6.136;2022-12-20T04:58:01;3.40;;;0.88;;
37201;SDS011;37799;52.390;6.136;2022-12-20T05:00:26;2.53;;;0.68;;
37201;SDS011;37799;52.390;6.136;2022-12-20T05:02:51;3.17;;;0.90;;
37201;SDS011;37799;52.390;6.136;2022-12-20T05:05:17;3.75;;;0.73;;
37201;SDS011;37799;52.390;6.136;2022-12-20T05:07:42;3.10;;;0.70;;
37201;SDS011;37799;52.390;6.136;2022-12-20T05:10:07;3.13;;;0.60;;
37201;SDS011;37799;52.390;6.136;2022-12-20T05:12:33;2.75;;;0.60;;
37201;SDS011;37799;52.390;6.136;2022-12-20T05:14:58;3.20;;;0.80;;
37201;SDS011;37799;52.390;6.136;2022-12-20T05:17:23;3.28;;;0.70;;
37201;SDS011;37799;52.390;6.136;2022-12-20T05:19:50;3.22;;;0.68;;
37201;SDS011;37799;52.390;6.136;2022-12-20T05:22:15;2.53;;;0.60;;
37201;SDS011;37799;52.390;6.136;2022-12-20T05:24:59;2.83;;;0.68;;
37201;SDS011;37799;52.390;6.136;2022-12-20T05:27:43;4.05;;;0.73;;
37201;SDS011;37799;52.390;6.136;2022-12-20T05:30:08;5.15;;;1.10;;
37201;SDS011;37799;52.390;6.136;2022-12-20T05:32:34;4.20;;;1.02;;
37201;SDS011;37799;52.390;6.136;2022-12-20T05:34:59;2.88;;;0.60;;
37201;SDS011;37799;52.390;6.136;2022-12-20T05:37:24;3.70;;;0.82;;
37201;SDS011;37799;52.390;6.136;2022-12-20T05:39:50;2.75;;;0.65;;
37201;SDS011;37799;52.390;6.136;2022-12-20T05:42:15;3.50;;;0.63;;
37201;SDS011;37799;52.390;6.136;2022-12-20T05:44:40;3.13;;;0.50;;
37201;SDS011;37799;52.390;6.136;2022-12-20T05:47:06;4.63;;;0.75;;
37201;SDS011;37799;52.390;6.136;2022-12-20T05:49:31;3.95;;;0.60;;
37201;SDS011;37799;52.390;6.136;2022-12-20T05:51:56;2.35;;;0.50;;
37201;SDS011;37799;52.390;6.136;2022-12-20T05:54:21;3.28;;;0.60;;
37201;SDS011;37799;52.390;6.136;2022-12-20T05:56:47;4.28;;;0.80;;
37201;SDS011;37799;52.390;6.136;2022-12-20T05:59:12;2.92;;;0.60;;
37201;SDS011;37799;52.390;6.136;2022-12-20T06:01:37;3.10;;;0.70;;
37201;SDS011;37799;52.390;6.136;2022-12-20T06:04:03;4.28;;;1.17;;
37201;SDS011;37799;52.390;6.136;2022-12-20T06:06:28;2.58;;;0.60;;
37201;SDS011;37799;52.390;6.136;2022-12-20T06:08:53;3.28;;;0.90;;
37201;SDS011;37799;52.390;6.136;2022-12-20T06:11:20;3.80;;;0.80;;
37201;SDS011;37799;52.390;6.136;2022-12-20T06:13:45;4.15;;;0.77;;
37201;SDS011;37799;52.390;6.136;2022-12-20T06:16:10;3.63;;;0.90;;
37201;SDS011;37799;52.390;6.136;2022-12-20T06:18:36;3.58;;;0.70;;
37201;SDS011;37799;52.390;6.136;2022-12-20T06:21:01;3.75;;;0.85;;
37201;SDS011;37799;52.390;6.136;2022-12-20T06:23:26;4.25;;;1.13;;
37201;SDS011;37799;52.390;6.136;2022-12-20T06:25:52;4.43;;;0.90;;
37201;SDS011;37799;52.390;6.136;2022-12-20T06:28:17;4.75;;;0.82;;
37201;SDS011;37799;52.390;6.136;2022-12-20T06:30:52;5.75;;;1.52;;
37201;SDS011;37799;52.390;6.136;2022-12-20T06:33:21;2.90;;;0.68;;
37201;SDS011;37799;52.390;6.136;2022-12-20T06:35:48;4.45;;;0.80;;
37201;SDS011;37799;52.390;6.136;2022-12-20T06:38:13;3.63;;;0.95;;
37201;SDS011;37799;52.390;6.136;2022-12-20T06:40:39;3.13;;;1.00;;
37201;SDS011;37799;52.390;6.136;2022-12-20T06:43:04;5.47;;;1.30;;
37201;SDS011;37799;52.390;6.136;2022-12-20T06:45:29;3.85;;;1.00;;
37201;SDS011;37799;52.390;6.136;2022-12-20T06:47:55;3.45;;;0.80;;
37201;SDS011;37799;52.390;6.136;2022-12-20T06:50:21;5.97;;;1.02;;
37201;SDS011;37799;52.390;6.136;2022-12-20T06:52:47;1.88;;;0.50;;
37201;SDS011;37799;52.390;6.136;2022-12-20T06:55:12;3.05;;;0.77;;
37201;SDS011;37799;52.390;6.136;2022-12-20T06:57:37;4.97;;;1.15;;
37201;SDS011;37799;52.390;6.136;2022-12-20T07:00:03;5.38;;;1.02;;
37201;SDS011;37799;52.390;6.136;2022-12-20T07:02:29;3.53;;;1.00;;
37201;SDS011;37799;52.390;6.136;2022-12-20T07:04:54;3.97;;;1.08;;
37201;SDS011;37799;52.390;6.136;2022-12-20T07:07:20;5.00;;;0.80;;
37201;SDS011;37799;52.390;6.136;2022-12-20T07:09:45;3.65;;;0.95;;
37201;SDS011;37799;52.390;6.136;2022-12-20T07:12:11;5.03;;;1.00;;
37201;SDS011;37799;52.390;6.136;2022-12-20T07:14:36;4.22;;;0.95;;
37201;SDS011;37799;52.390;6.136;2022-12-20T07:17:02;2.63;;;0.80;;
37201;SDS011;37799;52.390;6.136;2022-12-20T07:19:27;4.47;;;1.10;;
37201;SDS011;37799;52.390;6.136;2022-12-20T07:21:53;5.05;;;1.30;;
37201;SDS011;37799;52.390;6.136;2022-12-20T07:24:18;3.17;;;0.82;;
37201;SDS011;37799;52.390;6.136;2022-12-20T07:26:44;3.33;;;1.20;;
37201;SDS011;37799;52.390;6.136;2022-12-20T07:29:10;5.43;;;0.90;;
37201;SDS011;37799;52.390;6.136;2022-12-20T07:31:36;5.57;;;1.25;;
37201;SDS011;37799;52.390;6.136;2022-12-20T07:34:01;3.03;;;0.80;;
37201;SDS011;37799;52.390;6.136;2022-12-20T07:36:26;3.70;;;0.85;;
37201;SDS011;37799;52.390;6.136;2022-12-20T07:38:52;2.95;;;0.70;;
37201;SDS011;37799;52.390;6.136;2022-12-20T07:41:17;2.67;;;0.63;;
37201;SDS011;37799;52.390;6.136;2022-12-20T07:43:43;3.03;;;0.85;;
37201;SDS011;37799;52.390;6.136;2022-12-20T07:46:08;3.55;;;0.70;;
37201;SDS011;37799;52.390;6.136;2022-12-20T07:48:36;2.75;;;0.70;;
37201;SDS011;37799;52.390;6.136;2022-12-20T07:51:06;2.85;;;0.70;;
37201;SDS011;37799;52.390;6.136;2022-12-20T07:53:37;3.75;;;1.00;;
37201;SDS011;37799;52.390;6.136;2022-12-20T07:56:04;2.70;;;0.52;;
37201;SDS011;37799;52.390;6.136;2022-12-20T07:58:32;2.90;;;0.65;;
37201;SDS011;37799;52.390;6.136;2022-12-20T08:01:01;2.95;;;1.02;;
37201;SDS011;37799;52.390;6.136;2022-12-20T08:04:29;3.72;;;0.35;;
37201;SDS011;37799;52.390;6.136;2022-12-20T08:06:26;3.80;;;0.73;;
37201;SDS011;37799;52.390;6.136;2022-12-20T08:08:53;3.40;;;0.75;;
37201;SDS011;37799;52.390;6.136;2022-12-20T08:11:22;1.58;;;0.50;;
37201;SDS011;37799;52.390;6.136;2022-12-20T08:13:49;2.83;;;0.60;;
37201;SDS011;37799;52.390;6.136;2022-12-20T08:16:16;2.72;;;0.43;;
37201;SDS011;37799;52.390;6.136;2022-12-20T08:18:41;3.33;;;0.38;;
37201;SDS011;37799;52.390;6.136;2022-12-20T08:21:07;2.00;;;0.43;;
37201;SDS011;37799;52.390;6.136;2022-12-20T08:23:32;4.57;;;0.55;;
37201;SDS011;37799;52.390;6.136;2022-12-20T08:25:59;3.08;;;0.45;;
37201;SDS011;37799;52.390;6.136;2022-12-20T08:28:25;2.72;;;0.63;;
37201;SDS011;37799;52.390;6.136;2022-12-20T08:30:50;2.60;;;0.70;;
37201;SDS011;37799;52.390;6.136;2022-12-20T08:33:15;8.30;;;0.40;;
37201;SDS011;37799;52.390;6.136;2022-12-20T08:35:41;3.22;;;0.80;;
37201;SDS011;37799;52.390;6.136;2022-12-20T08:38:06;3.25;;;0.80;;
37201;SDS011;37799;52.390;6.136;2022-12-20T08:40:32;4.93;;;0.50;;
37201;SDS011;37799;52.390;6.136;2022-12-20T08:42:57;1.63;;;0.40;;
37201;SDS011;37799;52.390;6.136;2022-12-20T08:45:22;3.72;;;0.77;;
37201;SDS011;37799;52.390;6.136;2022-12-20T08:47:48;2.72;;;0.80;;
37201;SDS011;37799;52.390;6.136;2022-12-20T08:50:13;3.05;;;0.63;;
37201;SDS011;37799;52.390;6.136;2022-12-20T08:52:38;3.60;;;0.40;;
37201;SDS011;37799;52.390;6.136;2022-12-20T08:55:04;3.58;;;0.65;;
37201;SDS011;37799;52.390;6.136;2022-12-20T08:57:30;1.98;;;0.50;;
37201;SDS011;37799;52.390;6.136;2022-12-20T08:59:55;2.88;;;0.70;;
37201;SDS011;37799;52.390;6.136;2022-12-20T09:02:21;3.55;;;0.63;;
37201;SDS011;37799;52.390;6.136;2022-12-20T09:04:46;5.13;;;0.75;;
37201;SDS011;37799;52.390;6.136;2022-12-20T09:07:12;4.78;;;0.60;;
37201;SDS011;37799;52.390;6.136;2022-12-20T09:09:38;2.55;;;0.60;;
37201;SDS011;37799;52.390;6.136;2022-12-20T09:12:03;2.85;;;0.50;;
37201;SDS011;37799;52.390;6.136;2022-12-20T09:14:29;6.35;;;0.80;;
37201;SDS011;37799;52.390;6.136;2022-12-20T09:16:54;1.92;;;0.52;;
37201;SDS011;37799;52.390;6.136;2022-12-20T09:19:19;2.20;;;0.30;;
37201;SDS011;37799;52.390;6.136;2022-12-20T09:21:45;3.97;;;0.60;;
37201;SDS011;37799;52.390;6.136;2022-12-20T09:24:10;3.63;;;0.70;;
37201;SDS011;37799;52.390;6.136;2022-12-20T09:26:35;1.83;;;0.40;;
37201;SDS011;37799;52.390;6.136;2022-12-20T09:29:01;2.55;;;0.63;;
37201;SDS011;37799;52.390;6.136;2022-12-20T09:31:27;1.75;;;0.50;;
37201;SDS011;37799;52.390;6.136;2022-12-20T09:33:53;2.63;;;0.57;;
37201;SDS011;37799;52.390;6.136;2022-12-20T09:36:21;1.58;;;0.50;;
37201;SDS011;37799;52.390;6.136;2022-12-20T09:38:47;2.88;;;0.55;;
37201;SDS011;37799;52.390;6.136;2022-12-20T09:41:30;2.95;;;0.43;;
37201;SDS011;37799;52.390;6.136;2022-12-20T09:43:59;1.95;;;0.60;;
37201;SDS011;37799;52.390;6.136;2022-12-20T09:46:29;5.20;;;0.50;;
37201;SDS011;37799;52.390;6.136;2022-12-20T09:48:55;3.13;;;0.70;;
37201;SDS011;37799;52.390;6.136;2022-12-20T09:56:25;4.35;;;0.73;;
37201;SDS011;37799;52.390;6.136;2022-12-20T10:01:23;2.72;;;0.52;;
37201;SDS011;37799;52.390;6.136;2022-12-20T10:03:50;2.38;;;0.50;;
37201;SDS011;37799;52.390;6.136;2022-12-20T10:08:47;2.72;;;0.52;;
37201;SDS011;37799;52.390;6.136;2022-12-20T10:12:03;3.20;;;0.60;;
37201;SDS011;37799;52.390;6.136;2022-12-20T10:14:15;2.33;;;0.55;;
37201;SDS011;37799;52.390;6.136;2022-12-20T10:16:49;2.92;;;0.63;;
37201;SDS011;37799;52.390;6.136;2022-12-20T10:22:18;1.95;;;0.40;;
37201;SDS011;37799;52.390;6.136;2022-12-20T10:27:41;4.78;;;0.60;;
37201;SDS011;37799;52.390;6.136;2022-12-20T10:30:12;2.58;;;0.50;;
37201;SDS011;37799;52.390;6.136;2022-12-20T10:32:41;4.00;;;0.68;;
37201;SDS011;37799;52.390;6.136;2022-12-20T10:37:34;2.83;;;0.50;;
37201;SDS011;37799;52.390;6.136;2022-12-20T10:39:59;2.53;;;0.50;;
37201;SDS011;37799;52.390;6.136;2022-12-20T10:42:28;2.38;;;0.50;;
37201;SDS011;37799;52.390;6.136;2022-12-20T10:45:00;5.13;;;0.70;;
37201;SDS011;37799;52.390;6.136;2022-12-20T10:52:33;2.50;;;0.50;;
37201;SDS011;37799;52.390;6.136;2022-12-20T10:54:58;3.97;;;0.50;;
37201;SDS011;37799;52.390;6.136;2022-12-20T10:57:24;3.13;;;0.60;;
37201;SDS011;37799;52.390;6.136;2022-12-20T10:59:54;2.85;;;0.90;;
37201;SDS011;37799;52.390;6.136;2022-12-20T11:02:38;3.80;;;0.73;;
37201;SDS011;37799;52.390;6.136;2022-12-20T11:07:36;2.00;;;0.38;;
37201;SDS011;37799;52.390;6.136;2022-12-20T11:10:19;2.05;;;0.45;;
37201;SDS011;37799;52.390;6.136;2022-12-20T11:12:54;5.95;;;0.73;;
37201;SDS011;37799;52.390;6.136;2022-12-20T11:15:22;2.00;;;0.30;;
37201;SDS011;37799;52.390;6.136;2022-12-20T11:17:57;3.25;;;0.50;;
37201;SDS011;37799;52.390;6.136;2022-12-20T11:20:43;3.58;;;0.90;;
37201;SDS011;37799;52.390;6.136;2022-12-20T11:23:26;1.33;;;0.30;;
37201;SDS011;37799;52.390;6.136;2022-12-20T11:37:24;3.00;;;0.60;;
37201;SDS011;37799;52.390;6.136;2022-12-20T11:48:29;2.78;;;0.70;;
37201;SDS011;37799;52.390;6.136;2022-12-20T11:53:25;3.05;;;0.68;;
37201;SDS011;37799;52.390;6.136;2022-12-20T11:55:58;4.38;;;1.08;;
37201;SDS011;37799;52.390;6.136;2022-12-20T11:58:43;3.67;;;1.00;;
37201;SDS011;37799;52.390;6.136;2022-12-20T12:01:14;4.38;;;0.80;;
37201;SDS011;37799;52.390;6.136;2022-12-20T12:03:44;3.67;;;0.77;;
37201;SDS011;37799;52.390;6.136;2022-12-20T12:06:26;4.00;;;1.00;;
37201;SDS011;37799;52.390;6.136;2022-12-20T12:09:38;2.95;;;0.90;;
37201;SDS011;37799;52.390;6.136;2022-12-20T12:14:30;2.50;;;0.80;;
37201;SDS011;37799;52.390;6.136;2022-12-20T12:17:06;2.60;;;0.70;;
37201;SDS011;37799;52.390;6.136;2022-12-20T12:19:36;3.42;;;0.85;;
37201;SDS011;37799;52.390;6.136;2022-12-20T12:24:41;2.80;;;0.80;;
37201;SDS011;37799;52.390;6.136;2022-12-20T12:27:16;3.92;;;0.90;;
37201;SDS011;37799;52.390;6.136;2022-12-20T12:29:46;2.72;;;0.73;;
37201;SDS011;37799;52.390;6.136;2022-12-20T12:38:03;4.50;;;1.05;;
37201;SDS011;37799;52.390;6.136;2022-12-20T12:43:36;5.70;;;0.95;;
37201;SDS011;37799;52.390;6.136;2022-12-20T12:46:31;4.07;;;0.90;;
37201;SDS011;37799;52.390;6.136;2022-12-20T12:49:14;3.47;;;0.60;;
37201;SDS011;37799;52.390;6.136;2022-12-20T12:51:43;4.43;;;1.00;;
37201;SDS011;37799;52.390;6.136;2022-12-20T12:54:23;3.67;;;0.95;;
37201;SDS011;37799;52.390;6.136;2022-12-20T12:56:50;5.00;;;1.10;;
37201;SDS011;37799;52.390;6.136;2022-12-20T13:11:50;3.22;;;0.82;;
37201;SDS011;37799;52.390;6.136;2022-12-20T13:19:50;5.03;;;1.55;;
37201;SDS011;37799;52.390;6.136;2022-12-20T13:22:24;5.57;;;0.80;;
37201;SDS011;37799;52.390;6.136;2022-12-20T13:24:52;3.80;;;1.13;;
37201;SDS011;37799;52.390;6.136;2022-12-20T13:37:53;4.43;;;1.00;;
37201;SDS011;37799;52.390;6.136;2022-12-20T13:40:32;3.15;;;0.90;;
37201;SDS011;37799;52.390;6.136;2022-12-20T13:53:34;4.13;;;1.00;;
37201;SDS011;37799;52.390;6.136;2022-12-20T13:56:19;4.28;;;1.30;;
37201;SDS011;37799;52.390;6.136;2022-12-20T13:59:06;4.53;;;0.90;;
37201;SDS011;37799;52.390;6.136;2022-12-20T14:01:45;6.13;;;1.30;;
37201;SDS011;37799;52.390;6.136;2022-12-20T14:04:16;4.05;;;1.48;;
37201;SDS011;37799;52.390;6.136;2022-12-20T14:06:42;4.40;;;1.08;;
37201;SDS011;37799;52.390;6.136;2022-12-20T14:11:52;5.50;;;1.40;;
37201;SDS011;37799;52.390;6.136;2022-12-20T14:14:17;3.88;;;1.20;;
37201;SDS011;37799;52.390;6.136;2022-12-20T14:16:43;7.75;;;1.67;;
37201;SDS011;37799;52.390;6.136;2022-12-20T14:19:12;5.05;;;1.30;;
37201;SDS011;37799;52.390;6.136;2022-12-20T14:21:39;4.10;;;1.40;;
37201;SDS011;37799;52.390;6.136;2022-12-20T14:24:17;4.90;;;1.42;;
37201;SDS011;37799;52.390;6.136;2022-12-20T14:26:46;4.80;;;1.27;;
37201;SDS011;37799;52.390;6.136;2022-12-20T14:29:19;6.18;;;1.42;;
37201;SDS011;37799;52.390;6.136;2022-12-20T14:31:52;4.32;;;1.50;;
37201;SDS011;37799;52.390;6.136;2022-12-20T14:34:20;4.97;;;1.50;;
37201;SDS011;37799;52.390;6.136;2022-12-20T14:39:33;4.82;;;1.33;;
37201;SDS011;37799;52.390;6.136;2022-12-20T14:42:01;4.15;;;1.13;;
37201;SDS011;37799;52.390;6.136;2022-12-20T14:44:28;5.07;;;1.55;;
37201;SDS011;37799;52.390;6.136;2022-12-20T14:46:58;4.15;;;1.20;;
37201;SDS011;37799;52.390;6.136;2022-12-20T14:49:47;3.95;;;1.20;;
37201;SDS011;37799;52.390;6.136;2022-12-20T14:52:20;5.70;;;1.30;;
37201;SDS011;37799;52.390;6.136;2022-12-20T14:57:24;3.72;;;1.23;;
37201;SDS011;37799;52.390;6.136;2022-12-20T15:00:01;4.10;;;1.30;;
37201;SDS011;37799;52.390;6.136;2022-12-20T15:02:34;4.65;;;1.20;;
37201;SDS011;37799;52.390;6.136;2022-12-20T15:05:05;4.25;;;1.10;;
37201;SDS011;37799;52.390;6.136;2022-12-20T15:07:50;7.32;;;1.38;;
37201;SDS011;37799;52.390;6.136;2022-12-20T15:10:16;4.55;;;1.23;;
37201;SDS011;37799;52.390;6.136;2022-12-20T15:12:41;6.10;;;1.25;;
37201;SDS011;37799;52.390;6.136;2022-12-20T15:15:10;3.42;;;1.00;;
37201;SDS011;37799;52.390;6.136;2022-12-20T15:17:39;5.43;;;1.45;;
37201;SDS011;37799;52.390;6.136;2022-12-20T15:20:05;4.78;;;1.40;;
37201;SDS011;37799;52.390;6.136;2022-12-20T15:22:36;4.93;;;1.42;;
37201;SDS011;37799;52.390;6.136;2022-12-20T15:25:04;5.82;;;1.48;;
37201;SDS011;37799;52.390;6.136;2022-12-20T15:27:40;4.22;;;1.20;;
37201;SDS011;37799;52.390;6.136;2022-12-20T15:30:09;5.88;;;1.63;;
37201;SDS011;37799;52.390;6.136;2022-12-20T15:32:37;6.38;;;1.77;;
37201;SDS011;37799;52.390;6.136;2022-12-20T15:35:03;4.00;;;1.25;;
37201;SDS011;37799;52.390;6.136;2022-12-20T15:37:29;4.13;;;1.23;;
37201;SDS011;37799;52.390;6.136;2022-12-20T15:39:54;4.53;;;1.20;;
37201;SDS011;37799;52.390;6.136;2022-12-20T15:42:20;5.18;;;1.50;;
37201;SDS011;37799;52.390;6.136;2022-12-20T15:44:47;5.88;;;1.80;;
37201;SDS011;37799;52.390;6.136;2022-12-20T15:47:13;5.05;;;1.60;;
37201;SDS011;37799;52.390;6.136;2022-12-20T15:49:39;5.65;;;1.73;;
37201;SDS011;37799;52.390;6.136;2022-12-20T15:52:05;7.32;;;2.00;;
37201;SDS011;37799;52.390;6.136;2022-12-20T15:54:31;5.68;;;1.88;;
37201;SDS011;37799;52.390;6.136;2022-12-20T15:57:00;5.97;;;1.90;;
37201;SDS011;37799;52.390;6.136;2022-12-20T15:59:31;5.95;;;2.25;;
37201;SDS011;37799;52.390;6.136;2022-12-20T16:01:57;7.88;;;2.03;;
37201;SDS011;37799;52.390;6.136;2022-12-20T16:04:22;7.10;;;2.30;;
37201;SDS011;37799;52.390;6.136;2022-12-20T16:06:48;8.93;;;2.58;;
37201;SDS011;37799;52.390;6.136;2022-12-20T16:09:15;5.63;;;1.88;;
37201;SDS011;37799;52.390;6.136;2022-12-20T16:11:41;6.97;;;2.08;;
37201;SDS011;37799;52.390;6.136;2022-12-20T16:14:17;5.93;;;1.70;;
37201;SDS011;37799;52.390;6.136;2022-12-20T16:16:47;6.93;;;1.75;;
37201;SDS011;37799;52.390;6.136;2022-12-20T16:19:14;6.30;;;2.30;;
37201;SDS011;37799;52.390;6.136;2022-12-20T16:21:44;6.07;;;2.08;;
37201;SDS011;37799;52.390;6.136;2022-12-20T16:24:14;5.60;;;1.73;;
37201;SDS011;37799;52.390;6.136;2022-12-20T16:26:45;6.20;;;1.92;;
37201;SDS011;37799;52.390;6.136;2022-12-20T16:29:11;6.63;;;2.15;;
37201;SDS011;37799;52.390;6.136;2022-12-20T16:31:38;7.68;;;2.20;;
37201;SDS011;37799;52.390;6.136;2022-12-20T16:34:05;7.53;;;2.45;;
37201;SDS011;37799;52.390;6.136;2022-12-20T16:36:36;6.50;;;2.10;;
37201;SDS011;37799;52.390;6.136;2022-12-20T16:39:02;5.90;;;1.85;;
37201;SDS011;37799;52.390;6.136;2022-12-20T16:41:28;6.13;;;2.25;;
37201;SDS011;37799;52.390;6.136;2022-12-20T16:43:56;7.55;;;2.03;;
37201;SDS011;37799;52.390;6.136;2022-12-20T16:46:24;6.47;;;1.92;;
37201;SDS011;37799;52.390;6.136;2022-12-20T16:48:51;11.30;;;3.40;;
37201;SDS011;37799;52.390;6.136;2022-12-20T16:51:22;8.88;;;3.30;;
37201;SDS011;37799;52.390;6.136;2022-12-20T16:53:56;8.20;;;2.90;;
37201;SDS011;37799;52.390;6.136;2022-12-20T16:56:22;8.65;;;2.97;;
37201;SDS011;37799;52.390;6.136;2022-12-20T16:58:47;7.22;;;2.22;;
37201;SDS011;37799;52.390;6.136;2022-12-20T17:01:18;10.18;;;3.22;;
37201;SDS011;37799;52.390;6.136;2022-12-20T17:03:47;10.57;;;3.58;;
37201;SDS011;37799;52.390;6.136;2022-12-20T17:06:13;10.98;;;4.22;;
37201;SDS011;37799;52.390;6.136;2022-12-20T17:08:40;10.77;;;3.92;;
37201;SDS011;37799;52.390;6.136;2022-12-20T17:11:22;8.10;;;2.78;;
37201;SDS011;37799;52.390;6.136;2022-12-20T17:13:50;9.18;;;3.22;;